sensor_id;sensor_type;location;lat;lon;timestamp;P1;durP1;ratioP1;P2;durP2;ratioP2
73113;SDS011;61301;51.956;5.876;2022-12-05T00:01:38;37.53;;;22.48;;
73113;SDS011;61301;51.956;5.876;2022-12-05T00:04:08;33.15;;;18.55;;
73113;SDS011;61301;51.956;5.876;2022-12-05T00:06:37;33.00;;;19.90;;
73113;SDS011;61301;51.956;5.876;2022-12-05T00:09:05;42.15;;;25.30;;
73113;SDS011;61301;51.956;5.876;2022-12-05T00:11:33;34.15;;;20.33;;
73113;SDS011;61301;51.956;5.876;2022-12-05T00:14:00;37.50;;;21.35;;
73113;SDS011;61301;51.956;5.876;2022-12-05T00:16:28;36.17;;;22.08;;
73113;SDS011;61301;51.956;5.876;2022-12-05T00:18:57;33.47;;;21.40;;
73113;SDS011;61301;51.956;5.876;2022-12-05T00:21:25;29.15;;;18.88;;
73113;SDS011;61301;51.956;5.876;2022-12-05T00:23:53;44.47;;;25.42;;
73113;SDS011;61301;51.956;5.876;2022-12-05T00:26:20;37.42;;;23.85;;
73113;SDS011;61301;51.956;5.876;2022-12-05T00:28:46;36.55;;;23.67;;
73113;SDS011;61301;51.956;5.876;2022-12-05T00:31:14;45.42;;;28.08;;
73113;SDS011;61301;51.956;5.876;2022-12-05T00:33:48;32.28;;;18.50;;
73113;SDS011;61301;51.956;5.876;2022-12-05T00:36:21;41.13;;;25.30;;
73113;SDS011;61301;51.956;5.876;2022-12-05T00:38:48;44.30;;;25.23;;
73113;SDS011;61301;51.956;5.876;2022-12-05T00:41:16;42.63;;;26.10;;
73113;SDS011;61301;51.956;5.876;2022-12-05T00:43:44;37.92;;;23.33;;
73113;SDS011;61301;51.956;5.876;2022-12-05T00:46:12;38.88;;;24.35;;
73113;SDS011;61301;51.956;5.876;2022-12-05T00:48:40;34.20;;;20.40;;
73113;SDS011;61301;51.956;5.876;2022-12-05T00:51:10;41.72;;;24.65;;
73113;SDS011;61301;51.956;5.876;2022-12-05T00:53:38;34.95;;;20.38;;
73113;SDS011;61301;51.956;5.876;2022-12-05T00:56:06;38.75;;;23.67;;
73113;SDS011;61301;51.956;5.876;2022-12-05T00:58:34;30.83;;;19.80;;
73113;SDS011;61301;51.956;5.876;2022-12-05T01:01:08;42.58;;;25.50;;
73113;SDS011;61301;51.956;5.876;2022-12-05T01:03:39;39.22;;;23.17;;
73113;SDS011;61301;51.956;5.876;2022-12-05T01:06:05;46.83;;;27.33;;
73113;SDS011;61301;51.956;5.876;2022-12-05T01:08:32;34.33;;;23.00;;
73113;SDS011;61301;51.956;5.876;2022-12-05T01:10:59;39.03;;;22.95;;
73113;SDS011;61301;51.956;5.876;2022-12-05T01:13:26;45.22;;;28.52;;
73113;SDS011;61301;51.956;5.876;2022-12-05T01:15:53;42.58;;;25.05;;
73113;SDS011;61301;51.956;5.876;2022-12-05T01:18:19;35.53;;;21.52;;
73113;SDS011;61301;51.956;5.876;2022-12-05T01:20:46;43.83;;;26.33;;
73113;SDS011;61301;51.956;5.876;2022-12-05T01:23:13;36.97;;;22.90;;
73113;SDS011;61301;51.956;5.876;2022-12-05T01:25:40;34.47;;;20.75;;
73113;SDS011;61301;51.956;5.876;2022-12-05T01:28:11;39.95;;;23.33;;
73113;SDS011;61301;51.956;5.876;2022-12-05T01:30:39;38.63;;;23.58;;
73113;SDS011;61301;51.956;5.876;2022-12-05T01:33:06;40.90;;;22.30;;
73113;SDS011;61301;51.956;5.876;2022-12-05T01:35:33;42.40;;;23.13;;
73113;SDS011;61301;51.956;5.876;2022-12-05T01:38:01;33.28;;;19.52;;
73113;SDS011;61301;51.956;5.876;2022-12-05T01:40:28;44.92;;;26.95;;
73113;SDS011;61301;51.956;5.876;2022-12-05T01:42:54;36.85;;;21.55;;
73113;SDS011;61301;51.956;5.876;2022-12-05T01:45:39;39.47;;;22.65;;
73113;SDS011;61301;51.956;5.876;2022-12-05T01:48:09;31.05;;;18.67;;
73113;SDS011;61301;51.956;5.876;2022-12-05T01:50:39;37.65;;;21.10;;
73113;SDS011;61301;51.956;5.876;2022-12-05T01:53:06;41.10;;;23.85;;
73113;SDS011;61301;51.956;5.876;2022-12-05T01:55:32;36.42;;;22.88;;
73113;SDS011;61301;51.956;5.876;2022-12-05T01:58:00;45.63;;;26.83;;
73113;SDS011;61301;51.956;5.876;2022-12-05T02:00:27;42.55;;;26.13;;
73113;SDS011;61301;51.956;5.876;2022-12-05T02:02:57;38.30;;;22.13;;
73113;SDS011;61301;51.956;5.876;2022-12-05T02:05:27;32.10;;;19.25;;
73113;SDS011;61301;51.956;5.876;2022-12-05T02:07:56;36.85;;;22.77;;
73113;SDS011;61301;51.956;5.876;2022-12-05T02:10:23;34.58;;;20.83;;
73113;SDS011;61301;51.956;5.876;2022-12-05T02:12:50;34.58;;;20.50;;
73113;SDS011;61301;51.956;5.876;2022-12-05T02:17:56;41.40;;;24.38;;
73113;SDS011;61301;51.956;5.876;2022-12-05T02:32:07;28.88;;;18.10;;
73113;SDS011;61301;51.956;5.876;2022-12-05T02:37:28;26.02;;;15.75;;
73113;SDS011;61301;51.956;5.876;2022-12-05T02:40:14;41.15;;;23.30;;
73113;SDS011;61301;51.956;5.876;2022-12-05T02:43:02;30.95;;;18.20;;
73113;SDS011;61301;51.956;5.876;2022-12-05T02:45:35;35.45;;;21.67;;
73113;SDS011;61301;51.956;5.876;2022-12-05T02:48:05;35.70;;;20.65;;
73113;SDS011;61301;51.956;5.876;2022-12-05T02:50:32;25.98;;;16.25;;
73113;SDS011;61301;51.956;5.876;2022-12-05T02:53:03;33.42;;;20.52;;
73113;SDS011;61301;51.956;5.876;2022-12-05T02:55:33;30.85;;;19.75;;
73113;SDS011;61301;51.956;5.876;2022-12-05T02:58:00;37.35;;;22.88;;
73113;SDS011;61301;51.956;5.876;2022-12-05T03:00:33;34.25;;;21.42;;
73113;SDS011;61301;51.956;5.876;2022-12-05T03:03:00;39.38;;;23.67;;
73113;SDS011;61301;51.956;5.876;2022-12-05T03:08:36;26.83;;;16.58;;
73113;SDS011;61301;51.956;5.876;2022-12-05T03:11:10;36.22;;;20.73;;
73113;SDS011;61301;51.956;5.876;2022-12-05T03:13:41;38.35;;;22.55;;
73113;SDS011;61301;51.956;5.876;2022-12-05T03:16:19;35.97;;;21.35;;
73113;SDS011;61301;51.956;5.876;2022-12-05T03:18:53;29.70;;;20.33;;
73113;SDS011;61301;51.956;5.876;2022-12-05T03:21:29;30.80;;;20.55;;
73113;SDS011;61301;51.956;5.876;2022-12-05T03:24:05;33.72;;;20.48;;
73113;SDS011;61301;51.956;5.876;2022-12-05T03:31:56;31.17;;;19.63;;
73113;SDS011;61301;51.956;5.876;2022-12-05T03:34:41;29.20;;;19.48;;
73113;SDS011;61301;51.956;5.876;2022-12-05T03:37:10;30.98;;;19.20;;
73113;SDS011;61301;51.956;5.876;2022-12-05T03:42:11;25.83;;;15.27;;
73113;SDS011;61301;51.956;5.876;2022-12-05T03:44:43;32.90;;;20.02;;
73113;SDS011;61301;51.956;5.876;2022-12-05T03:47:31;30.50;;;17.88;;
73113;SDS011;61301;51.956;5.876;2022-12-05T03:50:09;20.73;;;13.02;;
73113;SDS011;61301;51.956;5.876;2022-12-05T03:52:41;31.20;;;18.38;;
73113;SDS011;61301;51.956;5.876;2022-12-05T03:55:12;17.33;;;10.70;;
73113;SDS011;61301;51.956;5.876;2022-12-05T03:57:43;24.88;;;15.93;;
73113;SDS011;61301;51.956;5.876;2022-12-05T04:00:15;28.90;;;18.00;;
73113;SDS011;61301;51.956;5.876;2022-12-05T04:02:54;24.20;;;15.65;;
73113;SDS011;61301;51.956;5.876;2022-12-05T04:05:31;21.27;;;13.98;;
73113;SDS011;61301;51.956;5.876;2022-12-05T04:08:11;27.45;;;16.52;;
73113;SDS011;61301;51.956;5.876;2022-12-05T04:10:42;25.03;;;15.53;;
73113;SDS011;61301;51.956;5.876;2022-12-05T04:13:14;20.83;;;12.88;;
73113;SDS011;61301;51.956;5.876;2022-12-05T04:15:52;28.30;;;17.25;;
73113;SDS011;61301;51.956;5.876;2022-12-05T04:18:46;26.15;;;16.70;;
73113;SDS011;61301;51.956;5.876;2022-12-05T04:21:24;27.52;;;16.90;;
73113;SDS011;61301;51.956;5.876;2022-12-05T04:24:08;28.20;;;19.05;;
73113;SDS011;61301;51.956;5.876;2022-12-05T04:27:01;23.08;;;14.32;;
73113;SDS011;61301;51.956;5.876;2022-12-05T04:29:36;25.80;;;16.77;;
73113;SDS011;61301;51.956;5.876;2022-12-05T04:32:09;18.50;;;11.27;;
73113;SDS011;61301;51.956;5.876;2022-12-05T04:34:38;22.00;;;15.75;;
73113;SDS011;61301;51.956;5.876;2022-12-05T04:37:10;22.55;;;13.60;;
73113;SDS011;61301;51.956;5.876;2022-12-05T04:39:49;20.05;;;12.98;;
73113;SDS011;61301;51.956;5.876;2022-12-05T04:42:24;26.40;;;17.15;;
73113;SDS011;61301;51.956;5.876;2022-12-05T04:44:54;19.73;;;13.35;;
73113;SDS011;61301;51.956;5.876;2022-12-05T04:47:26;23.65;;;15.48;;
73113;SDS011;61301;51.956;5.876;2022-12-05T04:49:55;22.52;;;16.75;;
73113;SDS011;61301;51.956;5.876;2022-12-05T04:52:23;22.30;;;15.50;;
73113;SDS011;61301;51.956;5.876;2022-12-05T04:55:11;20.55;;;14.73;;
73113;SDS011;61301;51.956;5.876;2022-12-05T05:00:20;28.52;;;19.60;;
73113;SDS011;61301;51.956;5.876;2022-12-05T05:02:51;21.60;;;14.68;;
73113;SDS011;61301;51.956;5.876;2022-12-05T05:05:22;23.52;;;15.60;;
73113;SDS011;61301;51.956;5.876;2022-12-05T05:07:49;25.33;;;17.05;;
73113;SDS011;61301;51.956;5.876;2022-12-05T05:10:29;23.15;;;15.25;;
73113;SDS011;61301;51.956;5.876;2022-12-05T05:13:02;22.08;;;14.82;;
73113;SDS011;61301;51.956;5.876;2022-12-05T05:15:28;19.58;;;12.60;;
73113;SDS011;61301;51.956;5.876;2022-12-05T05:17:54;20.27;;;13.73;;
73113;SDS011;61301;51.956;5.876;2022-12-05T05:20:20;19.42;;;12.75;;
73113;SDS011;61301;51.956;5.876;2022-12-05T05:22:49;22.88;;;16.23;;
73113;SDS011;61301;51.956;5.876;2022-12-05T05:25:16;21.58;;;14.18;;
73113;SDS011;61301;51.956;5.876;2022-12-05T05:27:46;22.35;;;14.43;;
73113;SDS011;61301;51.956;5.876;2022-12-05T05:30:14;22.92;;;15.80;;
73113;SDS011;61301;51.956;5.876;2022-12-05T05:32:40;23.35;;;16.77;;
73113;SDS011;61301;51.956;5.876;2022-12-05T05:35:06;20.95;;;14.55;;
73113;SDS011;61301;51.956;5.876;2022-12-05T05:37:32;21.67;;;15.13;;
73113;SDS011;61301;51.956;5.876;2022-12-05T05:39:58;16.40;;;12.00;;
73113;SDS011;61301;51.956;5.876;2022-12-05T05:42:24;18.67;;;13.00;;
73113;SDS011;61301;51.956;5.876;2022-12-05T05:44:50;19.90;;;14.68;;
73113;SDS011;61301;51.956;5.876;2022-12-05T05:47:16;27.30;;;18.67;;
73113;SDS011;61301;51.956;5.876;2022-12-05T05:49:42;16.98;;;11.52;;
73113;SDS011;61301;51.956;5.876;2022-12-05T05:52:08;22.10;;;14.43;;
73113;SDS011;61301;51.956;5.876;2022-12-05T05:54:34;26.80;;;18.55;;
73113;SDS011;61301;51.956;5.876;2022-12-05T05:57:00;23.50;;;16.20;;
73113;SDS011;61301;51.956;5.876;2022-12-05T05:59:26;18.48;;;12.75;;
73113;SDS011;61301;51.956;5.876;2022-12-05T06:01:51;23.83;;;17.23;;
73113;SDS011;61301;51.956;5.876;2022-12-05T06:04:17;20.75;;;13.45;;
73113;SDS011;61301;51.956;5.876;2022-12-05T06:06:43;22.85;;;15.32;;
73113;SDS011;61301;51.956;5.876;2022-12-05T06:09:09;14.68;;;10.43;;
73113;SDS011;61301;51.956;5.876;2022-12-05T06:11:35;25.25;;;15.85;;
73113;SDS011;61301;51.956;5.876;2022-12-05T06:14:01;20.27;;;13.90;;
73113;SDS011;61301;51.956;5.876;2022-12-05T06:16:28;17.58;;;13.75;;
73113;SDS011;61301;51.956;5.876;2022-12-05T06:18:55;21.20;;;14.68;;
73113;SDS011;61301;51.956;5.876;2022-12-05T06:21:21;16.45;;;12.10;;
73113;SDS011;61301;51.956;5.876;2022-12-05T06:23:48;23.77;;;16.40;;
73113;SDS011;61301;51.956;5.876;2022-12-05T06:26:16;23.17;;;15.52;;
73113;SDS011;61301;51.956;5.876;2022-12-05T06:28:43;21.67;;;14.75;;
73113;SDS011;61301;51.956;5.876;2022-12-05T06:31:10;22.52;;;15.40;;
73113;SDS011;61301;51.956;5.876;2022-12-05T06:33:38;20.35;;;14.07;;
73113;SDS011;61301;51.956;5.876;2022-12-05T06:36:06;21.48;;;15.07;;
73113;SDS011;61301;51.956;5.876;2022-12-05T06:38:34;18.65;;;13.32;;
73113;SDS011;61301;51.956;5.876;2022-12-05T06:41:03;20.75;;;15.07;;
73113;SDS011;61301;51.956;5.876;2022-12-05T06:43:31;22.48;;;17.15;;
73113;SDS011;61301;51.956;5.876;2022-12-05T06:45:57;25.05;;;17.13;;
73113;SDS011;61301;51.956;5.876;2022-12-05T06:48:24;20.90;;;14.13;;
73113;SDS011;61301;51.956;5.876;2022-12-05T06:50:50;20.65;;;13.95;;
73113;SDS011;61301;51.956;5.876;2022-12-05T06:53:17;18.42;;;12.63;;
73113;SDS011;61301;51.956;5.876;2022-12-05T06:55:44;24.60;;;16.95;;
73113;SDS011;61301;51.956;5.876;2022-12-05T06:58:19;18.35;;;13.00;;
73113;SDS011;61301;51.956;5.876;2022-12-05T07:00:45;24.08;;;16.08;;
73113;SDS011;61301;51.956;5.876;2022-12-05T07:03:29;22.15;;;16.25;;
73113;SDS011;61301;51.956;5.876;2022-12-05T07:05:58;20.30;;;13.85;;
73113;SDS011;61301;51.956;5.876;2022-12-05T07:08:25;24.02;;;16.02;;
73113;SDS011;61301;51.956;5.876;2022-12-05T07:10:51;24.38;;;17.50;;
73113;SDS011;61301;51.956;5.876;2022-12-05T07:13:17;19.58;;;14.07;;
73113;SDS011;61301;51.956;5.876;2022-12-05T07:15:47;20.88;;;15.52;;
73113;SDS011;61301;51.956;5.876;2022-12-05T07:18:14;21.17;;;13.70;;
73113;SDS011;61301;51.956;5.876;2022-12-05T07:20:41;15.65;;;10.13;;
73113;SDS011;61301;51.956;5.876;2022-12-05T07:23:08;16.85;;;12.05;;
73113;SDS011;61301;51.956;5.876;2022-12-05T07:25:38;13.70;;;9.00;;
73113;SDS011;61301;51.956;5.876;2022-12-05T07:28:05;22.27;;;14.88;;
73113;SDS011;61301;51.956;5.876;2022-12-05T07:30:31;17.13;;;11.50;;
73113;SDS011;61301;51.956;5.876;2022-12-05T07:32:57;18.02;;;11.75;;
73113;SDS011;61301;51.956;5.876;2022-12-05T07:35:23;16.08;;;11.52;;
73113;SDS011;61301;51.956;5.876;2022-12-05T07:37:49;16.55;;;12.15;;
73113;SDS011;61301;51.956;5.876;2022-12-05T07:40:15;17.33;;;11.43;;
73113;SDS011;61301;51.956;5.876;2022-12-05T07:42:41;17.77;;;12.02;;
73113;SDS011;61301;51.956;5.876;2022-12-05T07:45:07;15.80;;;12.20;;
73113;SDS011;61301;51.956;5.876;2022-12-05T07:47:34;16.98;;;10.63;;
73113;SDS011;61301;51.956;5.876;2022-12-05T07:49:59;16.48;;;11.70;;
73113;SDS011;61301;51.956;5.876;2022-12-05T07:52:25;12.27;;;9.43;;
73113;SDS011;61301;51.956;5.876;2022-12-05T07:54:52;11.32;;;8.55;;
73113;SDS011;61301;51.956;5.876;2022-12-05T07:57:18;14.38;;;11.10;;
73113;SDS011;61301;51.956;5.876;2022-12-05T07:59:44;10.52;;;8.05;;
73113;SDS011;61301;51.956;5.876;2022-12-05T08:02:10;13.77;;;9.10;;
73113;SDS011;61301;51.956;5.876;2022-12-05T08:04:36;10.90;;;7.80;;
73113;SDS011;61301;51.956;5.876;2022-12-05T08:07:02;9.88;;;7.72;;
73113;SDS011;61301;51.956;5.876;2022-12-05T08:09:28;12.25;;;8.57;;
73113;SDS011;61301;51.956;5.876;2022-12-05T08:11:54;16.65;;;12.38;;
73113;SDS011;61301;51.956;5.876;2022-12-05T08:14:20;15.38;;;11.93;;
73113;SDS011;61301;51.956;5.876;2022-12-05T08:16:46;16.73;;;12.13;;
73113;SDS011;61301;51.956;5.876;2022-12-05T08:19:12;15.98;;;11.32;;
73113;SDS011;61301;51.956;5.876;2022-12-05T08:21:38;16.42;;;11.85;;
73113;SDS011;61301;51.956;5.876;2022-12-05T08:24:05;16.05;;;13.00;;
73113;SDS011;61301;51.956;5.876;2022-12-05T08:26:32;21.05;;;14.65;;
73113;SDS011;61301;51.956;5.876;2022-12-05T08:29:00;21.77;;;16.20;;
73113;SDS011;61301;51.956;5.876;2022-12-05T08:31:28;13.05;;;9.82;;
73113;SDS011;61301;51.956;5.876;2022-12-05T08:33:57;13.32;;;9.98;;
73113;SDS011;61301;51.956;5.876;2022-12-05T08:36:23;10.65;;;7.47;;
73113;SDS011;61301;51.956;5.876;2022-12-05T08:38:54;9.70;;;7.43;;
73113;SDS011;61301;51.956;5.876;2022-12-05T08:41:21;11.00;;;8.23;;
73113;SDS011;61301;51.956;5.876;2022-12-05T08:43:47;18.65;;;13.43;;
73113;SDS011;61301;51.956;5.876;2022-12-05T08:46:13;13.70;;;10.82;;
73113;SDS011;61301;51.956;5.876;2022-12-05T08:48:39;13.55;;;10.38;;
73113;SDS011;61301;51.956;5.876;2022-12-05T08:51:06;10.55;;;8.45;;
73113;SDS011;61301;51.956;5.876;2022-12-05T08:53:34;14.07;;;10.73;;
73113;SDS011;61301;51.956;5.876;2022-12-05T08:56:01;9.30;;;6.43;;
73113;SDS011;61301;51.956;5.876;2022-12-05T08:58:29;10.60;;;7.18;;
73113;SDS011;61301;51.956;5.876;2022-12-05T09:01:08;10.57;;;8.10;;
73113;SDS011;61301;51.956;5.876;2022-12-05T09:03:36;14.70;;;9.82;;
73113;SDS011;61301;51.956;5.876;2022-12-05T09:08:38;15.48;;;10.10;;
73113;SDS011;61301;51.956;5.876;2022-12-05T09:11:06;11.95;;;9.25;;
73113;SDS011;61301;51.956;5.876;2022-12-05T09:13:33;24.77;;;16.20;;
73113;SDS011;61301;51.956;5.876;2022-12-05T09:16:09;18.63;;;13.02;;
73113;SDS011;61301;51.956;5.876;2022-12-05T09:18:37;19.95;;;14.02;;
73113;SDS011;61301;51.956;5.876;2022-12-05T09:21:04;13.57;;;10.57;;
73113;SDS011;61301;51.956;5.876;2022-12-05T09:23:36;10.18;;;7.68;;
73113;SDS011;61301;51.956;5.876;2022-12-05T09:26:03;19.20;;;14.02;;
73113;SDS011;61301;51.956;5.876;2022-12-05T09:28:31;18.52;;;12.23;;
73113;SDS011;61301;51.956;5.876;2022-12-05T09:30:59;13.52;;;9.77;;
73113;SDS011;61301;51.956;5.876;2022-12-05T09:33:30;16.85;;;10.82;;
73113;SDS011;61301;51.956;5.876;2022-12-05T09:36:01;15.57;;;11.02;;
73113;SDS011;61301;51.956;5.876;2022-12-05T09:38:28;18.05;;;12.57;;
73113;SDS011;61301;51.956;5.876;2022-12-05T09:43:56;18.05;;;12.25;;
73113;SDS011;61301;51.956;5.876;2022-12-05T09:46:34;22.25;;;12.93;;
73113;SDS011;61301;51.956;5.876;2022-12-05T09:49:20;24.60;;;15.37;;
73113;SDS011;61301;51.956;5.876;2022-12-05T09:51:47;23.85;;;15.45;;
73113;SDS011;61301;51.956;5.876;2022-12-05T09:54:15;17.83;;;11.63;;
73113;SDS011;61301;51.956;5.876;2022-12-05T09:56:42;18.02;;;12.43;;
73113;SDS011;61301;51.956;5.876;2022-12-05T09:59:13;21.77;;;14.00;;
73113;SDS011;61301;51.956;5.876;2022-12-05T10:01:51;22.13;;;15.90;;
73113;SDS011;61301;51.956;5.876;2022-12-05T10:04:50;20.85;;;13.25;;
73113;SDS011;61301;51.956;5.876;2022-12-05T10:10:23;17.25;;;11.60;;
73113;SDS011;61301;51.956;5.876;2022-12-05T10:15:31;20.95;;;14.20;;
73113;SDS011;61301;51.956;5.876;2022-12-05T10:18:03;20.63;;;13.75;;
73113;SDS011;61301;51.956;5.876;2022-12-05T10:20:53;21.40;;;14.43;;
73113;SDS011;61301;51.956;5.876;2022-12-05T10:26:02;19.85;;;12.60;;
73113;SDS011;61301;51.956;5.876;2022-12-05T10:31:29;17.67;;;11.57;;
73113;SDS011;61301;51.956;5.876;2022-12-05T10:34:01;21.10;;;12.75;;
73113;SDS011;61301;51.956;5.876;2022-12-05T10:36:37;19.27;;;11.93;;
73113;SDS011;61301;51.956;5.876;2022-12-05T10:39:02;18.23;;;12.60;;
73113;SDS011;61301;51.956;5.876;2022-12-05T10:41:28;18.45;;;10.98;;
73113;SDS011;61301;51.956;5.876;2022-12-05T10:43:55;13.45;;;9.30;;
73113;SDS011;61301;51.956;5.876;2022-12-05T10:46:23;12.75;;;8.85;;
73113;SDS011;61301;51.956;5.876;2022-12-05T10:48:49;20.13;;;12.40;;
73113;SDS011;61301;51.956;5.876;2022-12-05T10:51:16;14.93;;;10.25;;
73113;SDS011;61301;51.956;5.876;2022-12-05T10:53:49;11.95;;;7.65;;
73113;SDS011;61301;51.956;5.876;2022-12-05T10:56:35;13.38;;;9.15;;
73113;SDS011;61301;51.956;5.876;2022-12-05T10:59:13;13.48;;;9.40;;
73113;SDS011;61301;51.956;5.876;2022-12-05T11:06:58;14.10;;;8.98;;
73113;SDS011;61301;51.956;5.876;2022-12-05T11:09:30;13.85;;;9.25;;
73113;SDS011;61301;51.956;5.876;2022-12-05T11:14:30;15.10;;;9.48;;
73113;SDS011;61301;51.956;5.876;2022-12-05T11:16:58;18.88;;;13.30;;
73113;SDS011;61301;51.956;5.876;2022-12-05T11:19:37;16.95;;;11.27;;
73113;SDS011;61301;51.956;5.876;2022-12-05T11:22:04;15.68;;;12.25;;
73113;SDS011;61301;51.956;5.876;2022-12-05T11:24:35;11.18;;;8.05;;
73113;SDS011;61301;51.956;5.876;2022-12-05T11:29:41;14.55;;;11.25;;
73113;SDS011;61301;51.956;5.876;2022-12-05T11:32:16;16.20;;;13.05;;
73113;SDS011;61301;51.956;5.876;2022-12-05T11:34:52;11.18;;;7.90;;
73113;SDS011;61301;51.956;5.876;2022-12-05T11:37:32;12.15;;;9.57;;
73113;SDS011;61301;51.956;5.876;2022-12-05T11:40:11;15.88;;;11.70;;
73113;SDS011;61301;51.956;5.876;2022-12-05T11:45:20;13.77;;;11.13;;
73113;SDS011;61301;51.956;5.876;2022-12-05T11:48:01;10.63;;;8.45;;
73113;SDS011;61301;51.956;5.876;2022-12-05T11:50:46;13.50;;;10.13;;
73113;SDS011;61301;51.956;5.876;2022-12-05T11:56:47;10.98;;;8.07;;
73113;SDS011;61301;51.956;5.876;2022-12-05T12:08:24;7.97;;;6.13;;
73113;SDS011;61301;51.956;5.876;2022-12-05T12:13:39;11.65;;;9.13;;
73113;SDS011;61301;51.956;5.876;2022-12-05T12:21:50;10.75;;;9.35;;
73113;SDS011;61301;51.956;5.876;2022-12-05T12:27:35;10.13;;;7.60;;
73113;SDS011;61301;51.956;5.876;2022-12-05T12:30:19;11.32;;;9.02;;
73113;SDS011;61301;51.956;5.876;2022-12-05T12:35:49;10.23;;;8.65;;
73113;SDS011;61301;51.956;5.876;2022-12-05T12:38:27;10.98;;;9.13;;
73113;SDS011;61301;51.956;5.876;2022-12-05T12:41:02;11.27;;;8.88;;
73113;SDS011;61301;51.956;5.876;2022-12-05T12:49:30;4.45;;;3.95;;
73113;SDS011;61301;51.956;5.876;2022-12-05T12:52:04;7.45;;;5.70;;
73113;SDS011;61301;51.956;5.876;2022-12-05T12:54:38;5.57;;;4.70;;
73113;SDS011;61301;51.956;5.876;2022-12-05T13:00:21;10.75;;;8.25;;
73113;SDS011;61301;51.956;5.876;2022-12-05T13:09:11;12.45;;;7.88;;
73113;SDS011;61301;51.956;5.876;2022-12-05T13:11:43;9.85;;;7.32;;
73113;SDS011;61301;51.956;5.876;2022-12-05T13:14:12;7.93;;;6.72;;
73113;SDS011;61301;51.956;5.876;2022-12-05T13:16:41;10.45;;;8.80;;
73113;SDS011;61301;51.956;5.876;2022-12-05T13:19:21;7.07;;;5.60;;
73113;SDS011;61301;51.956;5.876;2022-12-05T13:21:58;6.10;;;5.22;;
73113;SDS011;61301;51.956;5.876;2022-12-05T13:24:26;9.02;;;7.75;;
73113;SDS011;61301;51.956;5.876;2022-12-05T13:26:53;8.43;;;7.22;;
73113;SDS011;61301;51.956;5.876;2022-12-05T13:29:38;5.97;;;4.57;;
73113;SDS011;61301;51.956;5.876;2022-12-05T13:32:32;6.82;;;5.85;;
73113;SDS011;61301;51.956;5.876;2022-12-05T13:35:00;9.10;;;7.82;;
73113;SDS011;61301;51.956;5.876;2022-12-05T13:37:32;7.15;;;5.97;;
73113;SDS011;61301;51.956;5.876;2022-12-05T13:40:21;7.93;;;6.45;;
73113;SDS011;61301;51.956;5.876;2022-12-05T13:43:18;7.95;;;5.50;;
73113;SDS011;61301;51.956;5.876;2022-12-05T13:45:56;6.78;;;5.22;;
73113;SDS011;61301;51.956;5.876;2022-12-05T13:48:24;8.43;;;7.45;;
73113;SDS011;61301;51.956;5.876;2022-12-05T13:50:53;7.70;;;5.93;;
73113;SDS011;61301;51.956;5.876;2022-12-05T13:55:57;3.00;;;2.47;;
73113;SDS011;61301;51.956;5.876;2022-12-05T14:03:59;4.82;;;3.65;;
73113;SDS011;61301;51.956;5.876;2022-12-05T14:11:39;4.15;;;3.45;;
73113;SDS011;61301;51.956;5.876;2022-12-05T14:17:22;3.05;;;2.53;;
73113;SDS011;61301;51.956;5.876;2022-12-05T14:40:00;1.30;;;1.13;;
73113;SDS011;61301;51.956;5.876;2022-12-05T14:42:41;1.00;;;0.77;;
73113;SDS011;61301;51.956;5.876;2022-12-05T14:48:05;1.25;;;0.75;;
73113;SDS011;61301;51.956;5.876;2022-12-05T14:50:48;1.40;;;1.20;;
73113;SDS011;61301;51.956;5.876;2022-12-05T14:55:46;2.35;;;1.00;;
73113;SDS011;61301;51.956;5.876;2022-12-05T14:58:18;1.00;;;0.80;;
73113;SDS011;61301;51.956;5.876;2022-12-05T15:00:54;1.63;;;1.40;;
73113;SDS011;61301;51.956;5.876;2022-12-05T15:03:41;2.10;;;1.17;;
73113;SDS011;61301;51.956;5.876;2022-12-05T15:06:28;2.00;;;0.98;;
73113;SDS011;61301;51.956;5.876;2022-12-05T15:08:55;3.90;;;1.58;;
73113;SDS011;61301;51.956;5.876;2022-12-05T15:11:23;2.25;;;1.58;;
73113;SDS011;61301;51.956;5.876;2022-12-05T15:13:54;1.30;;;0.90;;
73113;SDS011;61301;51.956;5.876;2022-12-05T15:16:25;1.35;;;1.00;;
73113;SDS011;61301;51.956;5.876;2022-12-05T15:18:59;0.68;;;0.60;;
73113;SDS011;61301;51.956;5.876;2022-12-05T15:21:32;0.80;;;0.70;;
73113;SDS011;61301;51.956;5.876;2022-12-05T15:24:09;0.70;;;0.40;;
73113;SDS011;61301;51.956;5.876;2022-12-05T15:26:43;0.60;;;0.45;;
73113;SDS011;61301;51.956;5.876;2022-12-05T15:34:28;0.80;;;0.68;;
73113;SDS011;61301;51.956;5.876;2022-12-05T15:37:11;1.95;;;1.17;;
73113;SDS011;61301;51.956;5.876;2022-12-05T15:42:30;0.65;;;0.50;;
73113;SDS011;61301;51.956;5.876;2022-12-05T15:48:24;0.22;;;0.20;;
73113;SDS011;61301;51.956;5.876;2022-12-05T15:58:38;0.55;;;0.52;;
73113;SDS011;61301;51.956;5.876;2022-12-05T16:01:12;1.02;;;0.90;;
73113;SDS011;61301;51.956;5.876;2022-12-05T16:06:28;1.30;;;0.88;;
73113;SDS011;61301;51.956;5.876;2022-12-05T16:11:31;0.55;;;0.40;;
73113;SDS011;61301;51.956;5.876;2022-12-05T16:13:59;0.98;;;0.77;;
73113;SDS011;61301;51.956;5.876;2022-12-05T16:16:35;0.80;;;0.68;;
73113;SDS011;61301;51.956;5.876;2022-12-05T16:19:21;1.25;;;0.70;;
73113;SDS011;61301;51.956;5.876;2022-12-05T16:21:58;0.65;;;0.40;;
73113;SDS011;61301;51.956;5.876;2022-12-05T16:24:37;0.43;;;0.40;;
73113;SDS011;61301;51.956;5.876;2022-12-05T16:27:14;1.08;;;0.70;;
73113;SDS011;61301;51.956;5.876;2022-12-05T16:29:42;1.10;;;0.80;;
73113;SDS011;61301;51.956;5.876;2022-12-05T16:34:50;0.85;;;0.77;;
73113;SDS011;61301;51.956;5.876;2022-12-05T16:37:17;0.60;;;0.47;;
73113;SDS011;61301;51.956;5.876;2022-12-05T16:39:49;0.70;;;0.60;;
73113;SDS011;61301;51.956;5.876;2022-12-05T16:42:24;2.63;;;0.80;;
73113;SDS011;61301;51.956;5.876;2022-12-05T16:44:55;1.48;;;0.98;;
73113;SDS011;61301;51.956;5.876;2022-12-05T16:52:36;1.95;;;1.05;;
73113;SDS011;61301;51.956;5.876;2022-12-05T16:55:02;1.98;;;1.20;;
73113;SDS011;61301;51.956;5.876;2022-12-05T16:57:28;1.17;;;1.08;;
73113;SDS011;61301;51.956;5.876;2022-12-05T16:59:54;1.55;;;0.80;;
73113;SDS011;61301;51.956;5.876;2022-12-05T17:02:21;0.98;;;0.70;;
73113;SDS011;61301;51.956;5.876;2022-12-05T17:04:47;1.60;;;0.90;;
73113;SDS011;61301;51.956;5.876;2022-12-05T17:07:13;1.33;;;0.75;;
73113;SDS011;61301;51.956;5.876;2022-12-05T17:09:39;0.73;;;0.65;;
73113;SDS011;61301;51.956;5.876;2022-12-05T17:12:07;0.73;;;0.50;;
73113;SDS011;61301;51.956;5.876;2022-12-05T17:14:40;0.57;;;0.55;;
73113;SDS011;61301;51.956;5.876;2022-12-05T17:17:11;0.63;;;0.63;;
73113;SDS011;61301;51.956;5.876;2022-12-05T17:19:38;0.52;;;0.45;;
73113;SDS011;61301;51.956;5.876;2022-12-05T17:22:07;0.88;;;0.55;;
73113;SDS011;61301;51.956;5.876;2022-12-05T17:24:35;0.55;;;0.55;;
73113;SDS011;61301;51.956;5.876;2022-12-05T17:27:01;0.75;;;0.43;;
73113;SDS011;61301;51.956;5.876;2022-12-05T17:29:27;1.02;;;0.63;;
73113;SDS011;61301;51.956;5.876;2022-12-05T17:31:53;0.80;;;0.60;;
73113;SDS011;61301;51.956;5.876;2022-12-05T17:34:19;0.93;;;0.63;;
73113;SDS011;61301;51.956;5.876;2022-12-05T17:36:45;1.73;;;1.10;;
73113;SDS011;61301;51.956;5.876;2022-12-05T17:39:11;0.85;;;0.40;;
73113;SDS011;61301;51.956;5.876;2022-12-05T17:41:37;0.55;;;0.40;;
73113;SDS011;61301;51.956;5.876;2022-12-05T17:44:03;0.70;;;0.60;;
73113;SDS011;61301;51.956;5.876;2022-12-05T17:46:30;1.35;;;0.45;;